sensor_id;sensor_type;location;lat;lon;timestamp;pressure;altitude;pressure_sealevel;temperature;humidity
74637;BME280;63141;54.616;39.754;2022-09-17T00:00:39;98573.81;;;17.65;56.93
74637;BME280;63141;54.616;39.754;2022-09-17T00:03:41;98572.97;;;17.65;57.14
74637;BME280;63141;54.616;39.754;2022-09-17T00:06:45;98579.94;;;17.66;57.03
74637;BME280;63141;54.616;39.754;2022-09-17T00:09:46;98585.28;;;17.64;57.04
74637;BME280;63141;54.616;39.754;2022-09-17T00:12:48;98576.50;;;17.64;57.11
74637;BME280;63141;54.616;39.754;2022-09-17T00:15:50;98587.94;;;17.64;57.17
74637;BME280;63141;54.616;39.754;2022-09-17T00:18:52;98590.56;;;17.64;57.14
74637;BME280;63141;54.616;39.754;2022-09-17T00:21:54;98599.31;;;17.65;57.12
74637;BME280;63141;54.616;39.754;2022-09-17T00:24:55;98601.09;;;17.64;56.95
74637;BME280;63141;54.616;39.754;2022-09-17T00:27:57;98605.47;;;17.64;56.89
74637;BME280;63141;54.616;39.754;2022-09-17T00:30:58;98603.72;;;17.64;56.94
74637;BME280;63141;54.616;39.754;2022-09-17T00:34:00;98599.38;;;17.63;56.87
74637;BME280;63141;54.616;39.754;2022-09-17T00:37:03;98604.56;;;17.65;56.94
74637;BME280;63141;54.616;39.754;2022-09-17T00:40:04;98607.19;;;17.65;57.02
74637;BME280;63141;54.616;39.754;2022-09-17T00:43:10;98609.84;;;17.65;56.73
74637;BME280;63141;54.616;39.754;2022-09-17T00:49:27;98610.75;;;17.64;57.02
74637;BME280;63141;54.616;39.754;2022-09-17T00:52:39;98613.38;;;17.64;56.91
74637;BME280;63141;54.616;39.754;2022-09-17T00:55:55;98615.09;;;17.65;57.10
74637;BME280;63141;54.616;39.754;2022-09-17T00:59:00;98622.16;;;17.64;57.09
74637;BME280;63141;54.616;39.754;2022-09-17T01:02:04;98619.56;;;17.63;56.92
74637;BME280;63141;54.616;39.754;2022-09-17T01:05:08;98621.38;;;17.62;56.96
74637;BME280;63141;54.616;39.754;2022-09-17T01:32:12;98642.41;;;17.62;57.44
74637;BME280;63141;54.616;39.754;2022-09-17T01:35:24;98642.41;;;17.62;57.03
74637;BME280;63141;54.616;39.754;2022-09-17T01:44:55;98655.66;;;17.61;57.17
74637;BME280;63141;54.616;39.754;2022-09-17T01:48:06;98652.09;;;17.62;56.73
74637;BME280;63141;54.616;39.754;2022-09-17T01:51:22;98657.38;;;17.62;57.01
74637;BME280;63141;54.616;39.754;2022-09-17T01:54:29;98667.03;;;17.61;57.05
74637;BME280;63141;54.616;39.754;2022-09-17T01:57:37;98660.91;;;17.61;57.05
74637;BME280;63141;54.616;39.754;2022-09-17T02:00:44;98669.59;;;17.63;57.22
74637;BME280;63141;54.616;39.754;2022-09-17T02:08:10;98667.03;;;17.61;56.85
74637;BME280;63141;54.616;39.754;2022-09-17T02:11:14;98668.81;;;17.61;56.93
74637;BME280;63141;54.616;39.754;2022-09-17T02:14:34;98673.16;;;17.62;57.06
74637;BME280;63141;54.616;39.754;2022-09-17T02:17:44;98685.44;;;17.61;57.13
74637;BME280;63141;54.616;39.754;2022-09-17T02:20:52;98681.97;;;17.61;56.91
74637;BME280;63141;54.616;39.754;2022-09-17T02:24:22;98686.34;;;17.62;56.88
74637;BME280;63141;54.616;39.754;2022-09-17T02:30:46;98682.81;;;17.61;57.13
74637;BME280;63141;54.616;39.754;2022-09-17T02:33:50;98685.53;;;17.59;56.78
74637;BME280;63141;54.616;39.754;2022-09-17T02:36:54;98683.75;;;17.60;57.25
74637;BME280;63141;54.616;39.754;2022-09-17T02:39:56;98689.88;;;17.61;56.97
74637;BME280;63141;54.616;39.754;2022-09-17T02:43:13;98698.63;;;17.61;56.98
74637;BME280;63141;54.616;39.754;2022-09-17T03:00:14;98708.31;;;17.61;56.90
74637;BME280;63141;54.616;39.754;2022-09-17T03:03:25;98712.72;;;17.60;56.98
74637;BME280;63141;54.616;39.754;2022-09-17T03:06:31;98723.31;;;17.58;57.00
74637;BME280;63141;54.616;39.754;2022-09-17T03:09:34;98718.81;;;17.61;56.93
74637;BME280;63141;54.616;39.754;2022-09-17T03:12:35;98725.94;;;17.58;56.99
74637;BME280;63141;54.616;39.754;2022-09-17T03:15:37;98725.94;;;17.58;57.04
74637;BME280;63141;54.616;39.754;2022-09-17T03:18:39;98723.25;;;17.60;56.96
74637;BME280;63141;54.616;39.754;2022-09-17T03:21:40;98724.16;;;17.59;57.13
74637;BME280;63141;54.616;39.754;2022-09-17T03:24:42;98734.63;;;17.61;56.97
74637;BME280;63141;54.616;39.754;2022-09-17T03:27:43;98742.53;;;17.61;57.16
74637;BME280;63141;54.616;39.754;2022-09-17T03:30:44;98735.56;;;17.59;56.86
74637;BME280;63141;54.616;39.754;2022-09-17T03:33:46;98743.47;;;17.59;56.82
74637;BME280;63141;54.616;39.754;2022-09-17T03:36:47;98739.09;;;17.58;57.01
74637;BME280;63141;54.616;39.754;2022-09-17T03:39:49;98748.72;;;17.59;56.94
74637;BME280;63141;54.616;39.754;2022-09-17T03:42:50;98751.34;;;17.59;57.06
74637;BME280;63141;54.616;39.754;2022-09-17T03:45:51;98767.06;;;17.61;56.91
74637;BME280;63141;54.616;39.754;2022-09-17T03:48:53;98755.75;;;17.59;56.92
74637;BME280;63141;54.616;39.754;2022-09-17T03:51:54;98754.84;;;17.60;56.97
74637;BME280;63141;54.616;39.754;2022-09-17T03:54:55;98764.53;;;17.59;57.01
74637;BME280;63141;54.616;39.754;2022-09-17T03:57:57;98769.78;;;17.59;56.85
74637;BME280;63141;54.616;39.754;2022-09-17T04:01:01;98776.75;;;17.61;56.84
74637;BME280;63141;54.616;39.754;2022-09-17T04:04:04;98775.06;;;17.59;56.98
74637;BME280;63141;54.616;39.754;2022-09-17T04:07:08;98768.91;;;17.59;56.90
74637;BME280;63141;54.616;39.754;2022-09-17T04:10:09;98780.31;;;17.59;56.98
74637;BME280;63141;54.616;39.754;2022-09-17T04:13:12;98780.31;;;17.59;56.99
74637;BME280;63141;54.616;39.754;2022-09-17T04:16:14;98780.31;;;17.59;57.12
74637;BME280;63141;54.616;39.754;2022-09-17T04:19:16;98785.59;;;17.59;57.22
74637;BME280;63141;54.616;39.754;2022-09-17T04:22:17;98782.00;;;17.61;57.05
74637;BME280;63141;54.616;39.754;2022-09-17T04:25:18;98785.59;;;17.59;56.99
74637;BME280;63141;54.616;39.754;2022-09-17T04:28:20;98791.69;;;17.60;56.93
74637;BME280;63141;54.616;39.754;2022-09-17T04:31:21;98792.53;;;17.61;57.15
74637;BME280;63141;54.616;39.754;2022-09-17T04:34:24;98789.97;;;17.59;57.00
74637;BME280;63141;54.616;39.754;2022-09-17T04:37:26;98801.38;;;17.59;56.85
74637;BME280;63141;54.616;39.754;2022-09-17T04:40:27;98796.13;;;17.59;57.15
74637;BME280;63141;54.616;39.754;2022-09-17T04:43:44;98801.38;;;17.59;57.24
74637;BME280;63141;54.616;39.754;2022-09-17T04:46:46;98802.22;;;17.60;57.25
74637;BME280;63141;54.616;39.754;2022-09-17T04:49:47;98814.47;;;17.61;57.07
74637;BME280;63141;54.616;39.754;2022-09-17T04:52:48;98812.72;;;17.62;57.52
74637;BME280;63141;54.616;39.754;2022-09-17T04:55:50;98817.09;;;17.61;57.28
74637;BME280;63141;54.616;39.754;2022-09-17T04:58:51;98814.47;;;17.61;57.46
74637;BME280;63141;54.616;39.754;2022-09-17T05:01:55;98819.72;;;17.61;57.41
74637;BME280;63141;54.616;39.754;2022-09-17T05:04:56;98818.75;;;17.64;57.53
74637;BME280;63141;54.616;39.754;2022-09-17T05:08:00;98818.69;;;17.65;57.47
74637;BME280;63141;54.616;39.754;2022-09-17T05:11:02;98820.47;;;17.65;57.54
74637;BME280;63141;54.616;39.754;2022-09-17T05:14:04;98837.13;;;17.65;57.57
74637;BME280;63141;54.616;39.754;2022-09-17T05:17:05;98837.97;;;17.66;57.49
74637;BME280;63141;54.616;39.754;2022-09-17T05:20:07;98839.69;;;17.67;57.77
74637;BME280;63141;54.616;39.754;2022-09-17T05:23:08;98832.69;;;17.66;57.63
74637;BME280;63141;54.616;39.754;2022-09-17T05:26:10;98837.06;;;17.67;57.93
74637;BME280;63141;54.616;39.754;2022-09-17T05:29:12;98840.59;;;17.66;57.98
74637;BME280;63141;54.616;39.754;2022-09-17T05:32:13;98859.91;;;17.66;58.24
74637;BME280;63141;54.616;39.754;2022-09-17T05:35:14;98859.03;;;17.66;58.10
74637;BME280;63141;54.616;39.754;2022-09-17T05:38:16;98855.53;;;17.65;58.20
74637;BME280;63141;54.616;39.754;2022-09-17T05:41:18;98858.19;;;17.65;58.16
74637;BME280;63141;54.616;39.754;2022-09-17T05:44:20;98869.56;;;17.66;58.12
74637;BME280;63141;54.616;39.754;2022-09-17T05:47:23;98870.44;;;17.66;58.22
74637;BME280;63141;54.616;39.754;2022-09-17T05:50:25;98880.09;;;17.66;58.13
74637;BME280;63141;54.616;39.754;2022-09-17T05:53:27;98885.34;;;17.66;58.29
74637;BME280;63141;54.616;39.754;2022-09-17T05:56:28;98883.66;;;17.65;58.16
74637;BME280;63141;54.616;39.754;2022-09-17T05:59:30;98895.03;;;17.65;58.16
74637;BME280;63141;54.616;39.754;2022-09-17T06:02:34;98907.22;;;17.68;58.25
74637;BME280;63141;54.616;39.754;2022-09-17T06:05:38;98915.13;;;17.68;58.15
74637;BME280;63141;54.616;39.754;2022-09-17T06:08:39;98927.38;;;17.69;58.12
74637;BME280;63141;54.616;39.754;2022-09-17T06:11:41;98932.50;;;17.72;58.09
74637;BME280;63141;54.616;39.754;2022-09-17T06:14:42;98936.78;;;17.74;58.10
74637;BME280;63141;54.616;39.754;2022-09-17T06:17:43;98930.53;;;17.77;58.03
74637;BME280;63141;54.616;39.754;2022-09-17T06:20:56;98929.63;;;17.78;58.07
74637;BME280;63141;54.616;39.754;2022-09-17T06:23:57;98930.44;;;17.80;57.72
74637;BME280;63141;54.616;39.754;2022-09-17T06:27:00;98926.91;;;17.81;57.73
74637;BME280;63141;54.616;39.754;2022-09-17T06:30:02;98926.84;;;17.83;57.94
74637;BME280;63141;54.616;39.754;2022-09-17T06:33:04;98931.19;;;17.84;57.82
74637;BME280;63141;54.616;39.754;2022-09-17T06:36:07;98933.75;;;17.85;57.82
74637;BME280;63141;54.616;39.754;2022-09-17T06:39:10;98930.19;;;17.86;57.45
74637;BME280;63141;54.616;39.754;2022-09-17T06:42:11;98939.84;;;17.87;57.80
74637;BME280;63141;54.616;39.754;2022-09-17T06:45:13;98947.72;;;17.87;57.83
74637;BME280;63141;54.616;39.754;2022-09-17T06:48:15;98930.19;;;17.86;57.62
74637;BME280;63141;54.616;39.754;2022-09-17T06:51:16;98932.84;;;17.86;57.70
74637;BME280;63141;54.616;39.754;2022-09-17T06:54:17;98936.41;;;17.85;57.77
74637;BME280;63141;54.616;39.754;2022-09-17T06:57:19;98931.13;;;17.85;57.67
74637;BME280;63141;54.616;39.754;2022-09-17T07:00:23;98936.41;;;17.85;57.70
74637;BME280;63141;54.616;39.754;2022-09-17T07:03:24;98937.31;;;17.84;57.69
74637;BME280;63141;54.616;39.754;2022-09-17T07:06:28;98935.59;;;17.83;57.83
74637;BME280;63141;54.616;39.754;2022-09-17T07:09:29;98930.34;;;17.83;57.86
74637;BME280;63141;54.616;39.754;2022-09-17T07:12:31;98942.56;;;17.84;57.79
74637;BME280;63141;54.616;39.754;2022-09-17T07:15:32;98944.34;;;17.84;57.93
74637;BME280;63141;54.616;39.754;2022-09-17T07:18:33;98943.50;;;17.83;57.93
74637;BME280;63141;54.616;39.754;2022-09-17T07:21:35;98946.13;;;17.83;58.00
74637;BME280;63141;54.616;39.754;2022-09-17T07:24:36;98947.00;;;17.84;58.24
74637;BME280;63141;54.616;39.754;2022-09-17T07:27:38;98942.56;;;17.84;58.15
74637;BME280;63141;54.616;39.754;2022-09-17T07:30:40;98953.09;;;17.84;58.45
74637;BME280;63141;54.616;39.754;2022-09-17T07:33:41;98960.09;;;17.85;58.50
74637;BME280;63141;54.616;39.754;2022-09-17T07:36:43;98950.41;;;17.86;58.61
74637;BME280;63141;54.616;39.754;2022-09-17T07:39:44;98944.31;;;17.85;58.68
74637;BME280;63141;54.616;39.754;2022-09-17T07:42:46;98948.72;;;17.85;58.72
74637;BME280;63141;54.616;39.754;2022-09-17T07:45:47;98946.00;;;17.86;58.92
74637;BME280;63141;54.616;39.754;2022-09-17T07:48:49;98964.44;;;17.86;58.73
74637;BME280;63141;54.616;39.754;2022-09-17T07:51:51;98956.53;;;17.86;59.26
74637;BME280;63141;54.616;39.754;2022-09-17T07:54:54;98956.28;;;17.92;61.12
74637;BME280;63141;54.616;39.754;2022-09-17T07:57:56;98952.16;;;18.07;62.66
74637;BME280;63141;54.616;39.754;2022-09-17T08:01:04;98948.97;;;18.21;64.30
74637;BME280;63141;54.616;39.754;2022-09-17T08:04:05;98956.41;;;18.32;64.74
74637;BME280;63141;54.616;39.754;2022-09-17T08:07:10;98967.53;;;18.38;65.39
74637;BME280;63141;54.616;39.754;2022-09-17T08:10:13;98957.84;;;18.39;65.83
74637;BME280;63141;54.616;39.754;2022-09-17T08:13:14;98959.50;;;18.41;66.82
74637;BME280;63141;54.616;39.754;2022-09-17T08:16:17;98969.13;;;18.42;67.77
74637;BME280;63141;54.616;39.754;2022-09-17T08:19:19;98978.75;;;18.43;68.08
74637;BME280;63141;54.616;39.754;2022-09-17T08:22:21;98968.97;;;18.46;68.60
74637;BME280;63141;54.616;39.754;2022-09-17T08:25:22;98983.91;;;18.47;68.98
74637;BME280;63141;54.616;39.754;2022-09-17T08:28:26;98971.63;;;18.46;69.36
74637;BME280;63141;54.616;39.754;2022-09-17T08:31:28;98976.97;;;18.44;69.24
74637;BME280;63141;54.616;39.754;2022-09-17T08:34:30;98975.31;;;18.41;69.31
74637;BME280;63141;54.616;39.754;2022-09-17T08:37:32;98982.44;;;18.39;69.12
74637;BME280;63141;54.616;39.754;2022-09-17T08:40:41;98993.91;;;18.38;68.89
74637;BME280;63141;54.616;39.754;2022-09-17T08:47:25;98988.78;;;18.35;68.26
74637;BME280;63141;54.616;39.754;2022-09-17T08:50:31;98991.47;;;18.34;68.32
74637;BME280;63141;54.616;39.754;2022-09-17T08:54:06;98996.72;;;18.34;68.15
74637;BME280;63141;54.616;39.754;2022-09-17T08:57:27;99005.56;;;18.33;67.53
74637;BME280;63141;54.616;39.754;2022-09-17T09:00:40;99009.97;;;18.32;67.48
74637;BME280;63141;54.616;39.754;2022-09-17T09:07:17;99021.31;;;18.34;67.39
74637;BME280;63141;54.616;39.754;2022-09-17T09:10:23;99010.66;;;18.37;68.07
74637;BME280;63141;54.616;39.754;2022-09-17T09:13:32;99020.91;;;18.43;68.76
74637;BME280;63141;54.616;39.754;2022-09-17T09:16:39;99010.13;;;18.50;69.07
74637;BME280;63141;54.616;39.754;2022-09-17T09:19:43;99009.88;;;18.56;69.91
74637;BME280;63141;54.616;39.754;2022-09-17T09:22:50;99013.16;;;18.61;70.25
74637;BME280;63141;54.616;39.754;2022-09-17T09:26:18;99006.94;;;18.62;70.24
74637;BME280;63141;54.616;39.754;2022-09-17T09:29:47;99002.63;;;18.61;70.33
74637;BME280;63141;54.616;39.754;2022-09-17T09:33:34;99006.19;;;18.60;69.82
74637;BME280;63141;54.616;39.754;2022-09-17T09:36:36;99022.06;;;18.58;69.53
74637;BME280;63141;54.616;39.754;2022-09-17T09:39:40;99020.41;;;18.56;68.99
74637;BME280;63141;54.616;39.754;2022-09-17T09:42:43;99030.69;;;18.62;68.86
74637;BME280;63141;54.616;39.754;2022-09-17T09:46:02;99036.31;;;18.75;68.33
74637;BME280;63141;54.616;39.754;2022-09-17T09:49:28;99028.81;;;18.86;67.82
74637;BME280;63141;54.616;39.754;2022-09-17T09:59:11;99026.63;;;18.96;67.36
74637;BME280;63141;54.616;39.754;2022-09-17T10:02:12;99019.63;;;18.95;67.04
74637;BME280;63141;54.616;39.754;2022-09-17T10:05:19;99025.72;;;18.97;67.30
74637;BME280;63141;54.616;39.754;2022-09-17T10:08:20;99020.44;;;18.97;66.82
74637;BME280;63141;54.616;39.754;2022-09-17T10:11:27;99030.00;;;18.99;66.93
74637;BME280;63141;54.616;39.754;2022-09-17T10:14:49;99035.13;;;19.02;66.72
74637;BME280;63141;54.616;39.754;2022-09-17T10:18:19;99032.28;;;19.07;67.16
74637;BME280;63141;54.616;39.754;2022-09-17T10:21:22;99029.50;;;19.10;67.24
74637;BME280;63141;54.616;39.754;2022-09-17T10:24:32;99034.56;;;19.15;67.14
74637;BME280;63141;54.616;39.754;2022-09-17T10:27:34;99033.50;;;19.19;67.28
74637;BME280;63141;54.616;39.754;2022-09-17T10:30:36;99042.16;;;19.22;67.47
74637;BME280;63141;54.616;39.754;2022-09-17T10:33:49;99051.72;;;19.25;67.57
74637;BME280;63141;54.616;39.754;2022-09-17T10:36:52;99055.16;;;19.27;68.01
74637;BME280;63141;54.616;39.754;2022-09-17T10:39:55;99036.53;;;19.30;67.98
74637;BME280;63141;54.616;39.754;2022-09-17T10:46:28;99037.25;;;19.34;68.26
74637;BME280;63141;54.616;39.754;2022-09-17T10:49:38;99038.16;;;19.33;68.67
74637;BME280;63141;54.616;39.754;2022-09-17T10:52:49;99051.25;;;19.36;69.01
74637;BME280;63141;54.616;39.754;2022-09-17T10:56:08;99045.75;;;19.40;69.10
74637;BME280;63141;54.616;39.754;2022-09-17T10:59:23;99055.31;;;19.43;69.50
74637;BME280;63141;54.616;39.754;2022-09-17T11:12:39;99062.13;;;19.28;70.70
74637;BME280;63141;54.616;39.754;2022-09-17T11:19:35;99056.25;;;19.21;71.11
74637;BME280;63141;54.616;39.754;2022-09-17T11:36:24;99060.00;;;19.17;71.43
74637;BME280;63141;54.616;39.754;2022-09-17T11:39:47;99056.41;;;19.18;71.15
74637;BME280;63141;54.616;39.754;2022-09-17T11:42:54;99065.13;;;19.20;71.24
74637;BME280;63141;54.616;39.754;2022-09-17T11:46:01;99058.25;;;19.16;70.78
74637;BME280;63141;54.616;39.754;2022-09-17T11:49:10;99069.06;;;19.10;70.72
74637;BME280;63141;54.616;39.754;2022-09-17T11:55:48;99067.94;;;18.97;70.36
74637;BME280;63141;54.616;39.754;2022-09-17T12:01:58;99066.44;;;18.90;69.93
74637;BME280;63141;54.616;39.754;2022-09-17T12:05:07;99085.06;;;18.87;69.91
74637;BME280;63141;54.616;39.754;2022-09-17T12:08:25;99073.81;;;18.83;69.64
74637;BME280;63141;54.616;39.754;2022-09-17T12:11:33;99067.78;;;18.79;69.53
74637;BME280;63141;54.616;39.754;2022-09-17T12:18:48;99074.06;;;18.75;69.35
74637;BME280;63141;54.616;39.754;2022-09-17T12:21:59;99072.38;;;18.74;68.97
74637;BME280;63141;54.616;39.754;2022-09-17T12:25:02;99075.06;;;18.73;68.92
74637;BME280;63141;54.616;39.754;2022-09-17T12:28:13;99079.50;;;18.72;68.69
74637;BME280;63141;54.616;39.754;2022-09-17T12:35:03;99083.19;;;18.68;68.66
74637;BME280;63141;54.616;39.754;2022-09-17T12:47:59;99091.34;;;18.62;68.12
74637;BME280;63141;54.616;39.754;2022-09-17T12:51:09;99097.56;;;18.61;68.11
74637;BME280;63141;54.616;39.754;2022-09-17T13:01:18;99109.94;;;18.59;67.84
74637;BME280;63141;54.616;39.754;2022-09-17T13:04:46;99112.63;;;18.57;67.92
74637;BME280;63141;54.616;39.754;2022-09-17T13:18:14;99119.59;;;18.60;69.33
74637;BME280;63141;54.616;39.754;2022-09-17T13:21:31;99106.25;;;18.63;69.79
74637;BME280;63141;54.616;39.754;2022-09-17T13:24:35;99120.09;;;18.68;70.31
74637;BME280;63141;54.616;39.754;2022-09-17T13:27:38;99125.31;;;18.70;70.27
74637;BME280;63141;54.616;39.754;2022-09-17T13:30:57;99137.53;;;18.72;70.55
74637;BME280;63141;54.616;39.754;2022-09-17T13:34:02;99139.22;;;18.73;70.58
74637;BME280;63141;54.616;39.754;2022-09-17T13:37:17;99143.59;;;18.74;70.48
74637;BME280;63141;54.616;39.754;2022-09-17T13:40:28;99147.94;;;18.75;70.44
74637;BME280;63141;54.616;39.754;2022-09-17T13:43:31;99148.78;;;18.76;70.34
74637;BME280;63141;54.616;39.754;2022-09-17T13:46:33;99144.41;;;18.76;70.35
74637;BME280;63141;54.616;39.754;2022-09-17T13:49:45;99145.28;;;18.77;70.16
74637;BME280;63141;54.616;39.754;2022-09-17T13:52:49;99144.41;;;18.76;70.05
74637;BME280;63141;54.616;39.754;2022-09-17T13:55:53;99143.50;;;18.76;70.07
74637;BME280;63141;54.616;39.754;2022-09-17T13:59:11;99150.66;;;18.74;69.74
74637;BME280;63141;54.616;39.754;2022-09-17T14:05:33;99143.78;;;18.70;69.42
74637;BME280;63141;54.616;39.754;2022-09-17T14:11:47;99139.56;;;18.66;69.11
74637;BME280;63141;54.616;39.754;2022-09-17T14:14:50;99130.78;;;18.65;68.85
74637;BME280;63141;54.616;39.754;2022-09-17T14:17:52;99123.78;;;18.64;68.71
74637;BME280;63141;54.616;39.754;2022-09-17T14:21:19;99134.34;;;18.64;68.07
74637;BME280;63141;54.616;39.754;2022-09-17T14:28:02;99147.66;;;18.61;68.11
74637;BME280;63141;54.616;39.754;2022-09-17T14:31:15;99145.03;;;18.61;67.82
74637;BME280;63141;54.616;39.754;2022-09-17T14:34:20;99141.59;;;18.59;67.82
74637;BME280;63141;54.616;39.754;2022-09-17T14:37:23;99146.84;;;18.59;67.58
74637;BME280;63141;54.616;39.754;2022-09-17T14:40:27;99146.00;;;18.58;67.22
74637;BME280;63141;54.616;39.754;2022-09-17T14:43:43;99147.84;;;18.56;67.15
74637;BME280;63141;54.616;39.754;2022-09-17T14:47:01;99128.53;;;18.56;67.06
74637;BME280;63141;54.616;39.754;2022-09-17T14:50:24;99129.44;;;18.55;66.74
74637;BME280;63141;54.616;39.754;2022-09-17T14:53:26;99136.56;;;18.53;66.67
74637;BME280;63141;54.616;39.754;2022-09-17T14:56:27;99138.28;;;18.54;66.52
74637;BME280;63141;54.616;39.754;2022-09-17T15:02:49;99151.53;;;18.52;65.89
74637;BME280;63141;54.616;39.754;2022-09-17T15:05:58;99154.22;;;18.51;65.86
74637;BME280;63141;54.616;39.754;2022-09-17T15:08:59;99156.00;;;18.50;65.71
74637;BME280;63141;54.616;39.754;2022-09-17T15:12:02;99152.50;;;18.50;65.42
74637;BME280;63141;54.616;39.754;2022-09-17T15:15:16;99162.19;;;18.49;65.38
74637;BME280;63141;54.616;39.754;2022-09-17T15:18:19;99171.00;;;18.48;65.30
74637;BME280;63141;54.616;39.754;2022-09-17T15:21:27;99167.53;;;18.48;65.03
74637;BME280;63141;54.616;39.754;2022-09-17T15:24:44;99169.25;;;18.49;64.92
74637;BME280;63141;54.616;39.754;2022-09-17T15:28:02;99170.16;;;18.48;64.74
74637;BME280;63141;54.616;39.754;2022-09-17T15:31:16;99163.19;;;18.47;64.46
74637;BME280;63141;54.616;39.754;2022-09-17T15:34:18;99167.53;;;18.48;64.49
74637;BME280;63141;54.616;39.754;2022-09-17T15:37:24;99173.72;;;18.47;64.32
74637;BME280;63141;54.616;39.754;2022-09-17T15:40:37;99181.66;;;18.47;64.29
74637;BME280;63141;54.616;39.754;2022-09-17T15:43:39;99186.97;;;18.45;63.99
74637;BME280;63141;54.616;39.754;2022-09-17T15:46:41;99195.81;;;18.44;64.01
74637;BME280;63141;54.616;39.754;2022-09-17T15:50:05;99197.50;;;18.45;63.77
74637;BME280;63141;54.616;39.754;2022-09-17T15:56:16;99201.94;;;18.45;63.36
74637;BME280;63141;54.616;39.754;2022-09-17T15:59:28;99201.09;;;18.44;63.38
74637;BME280;63141;54.616;39.754;2022-09-17T16:02:31;99204.63;;;18.43;63.45
74637;BME280;63141;54.616;39.754;2022-09-17T16:05:46;99196.75;;;18.41;63.22
74637;BME280;63141;54.616;39.754;2022-09-17T16:12:37;99203.91;;;18.39;62.98
74637;BME280;63141;54.616;39.754;2022-09-17T16:15:39;99213.50;;;18.40;62.73
74637;BME280;63141;54.616;39.754;2022-09-17T16:18:42;99206.53;;;18.39;62.90
74637;BME280;63141;54.616;39.754;2022-09-17T16:21:45;99209.19;;;18.39;62.77
74637;BME280;63141;54.616;39.754;2022-09-17T16:24:47;99208.28;;;18.39;62.55
74637;BME280;63141;54.616;39.754;2022-09-17T16:27:53;99210.06;;;18.38;62.39
74637;BME280;63141;54.616;39.754;2022-09-17T16:30:56;99212.72;;;18.38;62.47
74637;BME280;63141;54.616;39.754;2022-09-17T16:33:59;99203.00;;;18.39;62.24
74637;BME280;63141;54.616;39.754;2022-09-17T16:37:01;99216.28;;;18.37;62.10
74637;BME280;63141;54.616;39.754;2022-09-17T16:40:03;99220.66;;;18.37;62.09
74637;BME280;63141;54.616;39.754;2022-09-17T16:43:05;99235.59;;;18.38;61.86
74637;BME280;63141;54.616;39.754;2022-09-17T16:46:27;99233.00;;;18.36;61.81
74637;BME280;63141;54.616;39.754;2022-09-17T16:49:29;99229.50;;;18.36;61.73
74637;BME280;63141;54.616;39.754;2022-09-17T16:52:34;99231.22;;;18.37;61.55
74637;BME280;63141;54.616;39.754;2022-09-17T16:55:37;99233.94;;;18.35;61.59
74637;BME280;63141;54.616;39.754;2022-09-17T16:58:41;99250.59;;;18.36;61.55
74637;BME280;63141;54.616;39.754;2022-09-17T17:01:43;99253.25;;;18.36;61.15
74637;BME280;63141;54.616;39.754;2022-09-17T17:04:56;99250.59;;;18.36;61.12
74637;BME280;63141;54.616;39.754;2022-09-17T17:07:59;99251.44;;;18.36;61.07
74637;BME280;63141;54.616;39.754;2022-09-17T17:11:02;99253.28;;;18.34;61.14
74637;BME280;63141;54.616;39.754;2022-09-17T17:14:05;99254.22;;;18.33;60.97
74637;BME280;63141;54.616;39.754;2022-09-17T17:17:08;99246.31;;;18.33;60.97
74637;BME280;63141;54.616;39.754;2022-09-17T17:20:11;99238.41;;;18.33;60.73
74637;BME280;63141;54.616;39.754;2022-09-17T17:23:15;99237.56;;;18.33;60.69
74637;BME280;63141;54.616;39.754;2022-09-17T17:26:18;99246.31;;;18.33;60.69
74637;BME280;63141;54.616;39.754;2022-09-17T17:29:25;99243.72;;;18.32;60.66
74637;BME280;63141;54.616;39.754;2022-09-17T17:32:51;99244.56;;;18.32;60.49
74637;BME280;63141;54.616;39.754;2022-09-17T17:36:01;99248.13;;;18.31;60.52
74637;BME280;63141;54.616;39.754;2022-09-17T17:39:05;99253.41;;;18.31;60.37
74637;BME280;63141;54.616;39.754;2022-09-17T17:42:06;99245.56;;;18.30;60.35
74637;BME280;63141;54.616;39.754;2022-09-17T17:45:09;99241.16;;;18.30;59.96
74637;BME280;63141;54.616;39.754;2022-09-17T17:48:19;99249.06;;;18.30;60.07
74637;BME280;63141;54.616;39.754;2022-09-17T17:51:23;99243.81;;;18.30;60.12
74637;BME280;63141;54.616;39.754;2022-09-17T17:54:26;99251.72;;;18.30;59.99
74637;BME280;63141;54.616;39.754;2022-09-17T17:57:32;99249.97;;;18.29;60.23
74637;BME280;63141;54.616;39.754;2022-09-17T18:00:34;99255.25;;;18.29;59.99
74637;BME280;63141;54.616;39.754;2022-09-17T18:03:44;99263.16;;;18.29;59.84
74637;BME280;63141;54.616;39.754;2022-09-17T18:07:06;99273.69;;;18.29;59.82
74637;BME280;63141;54.616;39.754;2022-09-17T18:10:14;99274.63;;;18.28;59.79
74637;BME280;63141;54.616;39.754;2022-09-17T18:13:24;99276.34;;;18.29;59.60
74637;BME280;63141;54.616;39.754;2022-09-17T18:16:52;99265.78;;;18.29;59.69
74637;BME280;63141;54.616;39.754;2022-09-17T18:19:56;99274.63;;;18.28;59.55
74637;BME280;63141;54.616;39.754;2022-09-17T18:23:01;99279.00;;;18.28;59.32
74637;BME280;63141;54.616;39.754;2022-09-17T18:26:09;99271.06;;;18.29;59.27
74637;BME280;63141;54.616;39.754;2022-09-17T18:29:14;99274.63;;;18.28;59.32
74637;BME280;63141;54.616;39.754;2022-09-17T18:32:18;99279.00;;;18.28;59.14
74637;BME280;63141;54.616;39.754;2022-09-17T18:35:23;99285.16;;;18.28;59.20
74637;BME280;63141;54.616;39.754;2022-09-17T18:38:25;99292.16;;;18.29;59.10
74637;BME280;63141;54.616;39.754;2022-09-17T18:41:47;99287.81;;;18.28;59.17
74637;BME280;63141;54.616;39.754;2022-09-17T18:44:52;99279.91;;;18.28;58.72
74637;BME280;63141;54.616;39.754;2022-09-17T18:47:55;99275.34;;;18.32;58.80
74637;BME280;63141;54.616;39.754;2022-09-17T18:51:03;99275.25;;;18.35;58.73
74637;BME280;63141;54.616;39.754;2022-09-17T18:54:08;99277.81;;;18.36;58.53